createdAt,value
2024-01-04T00:01:24.146Z,1.45
2024-01-04T00:03:54.389Z,1.85
2024-01-04T00:06:24.497Z,2.60
2024-01-04T00:08:54.726Z,2.08
2024-01-04T00:11:24.988Z,2.58
2024-01-04T00:14:00.244Z,2.63
2024-01-04T00:16:30.168Z,3.17
2024-01-04T00:19:00.300Z,4.20
2024-01-04T00:21:30.231Z,4.10
2024-01-04T00:24:02.043Z,3.80
2024-01-04T00:26:33.810Z,5.15
2024-01-04T00:29:06.494Z,5.03
2024-01-04T00:31:36.464Z,5.53
2024-01-04T00:34:08.349Z,5.50
2024-01-04T00:36:38.650Z,4.85
2024-01-04T00:39:09.208Z,5.57
2024-01-04T00:41:39.217Z,6.78
2024-01-04T00:44:11.957Z,7.47
2024-01-04T00:46:43.124Z,6.97
2024-01-04T00:49:13.247Z,6.38
2024-01-04T00:51:44.146Z,5.97
2024-01-04T00:54:14.436Z,5.35
2024-01-04T00:56:44.411Z,5.07
2024-01-04T00:59:16.965Z,4.85
2024-01-04T01:01:46.797Z,4.68
2024-01-04T01:04:18.726Z,4.07
2024-01-04T01:06:48.658Z,3.90
2024-01-04T01:09:18.710Z,3.67
2024-01-04T01:11:50.036Z,3.47
2024-01-04T01:14:22.661Z,4.35
2024-01-04T01:16:52.720Z,3.72
2024-01-04T01:19:23.076Z,3.42
2024-01-04T01:21:53.441Z,3.55
2024-01-04T01:24:25.466Z,3.45
2024-01-04T01:26:55.343Z,2.92
2024-01-04T01:29:28.088Z,2.60
2024-01-04T01:31:58.387Z,3.08
2024-01-04T01:34:28.272Z,2.58
2024-01-04T01:36:59.348Z,2.88
2024-01-04T01:39:29.231Z,2.28
2024-01-04T01:41:59.198Z,2.97
2024-01-04T01:44:32.255Z,3.05
2024-01-04T01:47:02.192Z,3.47
2024-01-04T01:49:32.395Z,3.45
2024-01-04T01:52:03.252Z,3.60
2024-01-04T01:54:34.122Z,3.45
2024-01-04T01:57:04.462Z,4.07
2024-01-04T01:59:37.308Z,3.10
2024-01-04T02:02:07.787Z,3.20
2024-01-04T02:04:37.843Z,2.88
2024-01-04T02:07:08.102Z,3.10
2024-01-04T02:09:38.464Z,2.13
2024-01-04T02:12:09.481Z,2.38
2024-01-04T02:14:42.491Z,3.20
2024-01-04T02:17:12.471Z,2.20
2024-01-04T02:19:43.328Z,2.40
2024-01-04T02:22:14.099Z,1.80
2024-01-04T02:24:46.897Z,1.98
2024-01-04T02:27:17.715Z,1.42
2024-01-04T02:29:47.688Z,2.00
2024-01-04T02:32:17.918Z,1.90
2024-01-04T02:34:48.046Z,1.88
2024-01-04T02:37:17.982Z,1.70
2024-01-04T02:39:50.470Z,1.40
2024-01-04T02:42:20.292Z,1.92
2024-01-04T02:44:50.700Z,2.20
2024-01-04T02:47:21.184Z,1.98
2024-01-04T02:49:51.106Z,1.55
2024-01-04T02:52:21.013Z,1.70
2024-01-04T02:54:53.748Z,2.25
2024-01-04T02:57:24.079Z,2.38
2024-01-04T02:59:54.428Z,2.58
2024-01-04T03:02:24.721Z,1.70
2024-01-04T03:04:55.183Z,1.50
2024-01-04T03:07:25.148Z,1.67
2024-01-04T03:09:58.554Z,2.08
2024-01-04T03:12:28.375Z,2.33
2024-01-04T03:15:00.661Z,1.63
2024-01-04T03:20:00.495Z,2.00
2024-01-04T03:22:30.413Z,1.90
2024-01-04T03:25:02.961Z,1.35
2024-01-04T03:27:32.878Z,2.03
2024-01-04T03:30:02.997Z,1.73
2024-01-04T03:32:32.956Z,2.05
2024-01-04T03:35:02.890Z,1.77
2024-01-04T03:37:32.995Z,1.98
2024-01-04T03:40:08.089Z,1.98
2024-01-04T03:42:38.253Z,1.90
2024-01-04T03:45:11.281Z,1.77
2024-01-04T03:47:41.593Z,2.55
2024-01-04T03:50:12.416Z,1.85
2024-01-04T03:52:44.398Z,2.50
2024-01-04T03:55:18.022Z,2.83
2024-01-04T03:57:48.764Z,2.38
2024-01-04T04:00:19.336Z,2.75
2024-01-04T04:02:49.699Z,2.60
2024-01-04T04:05:19.772Z,2.35
2024-01-04T04:07:49.743Z,2.45
2024-01-04T04:10:23.612Z,1.75
2024-01-04T04:12:54.034Z,1.50
2024-01-04T04:15:24.058Z,1.35
2024-01-04T04:17:56.611Z,1.40
2024-01-04T04:20:26.685Z,1.40
2024-01-04T04:22:57.270Z,1.05
2024-01-04T04:25:30.252Z,1.42
2024-01-04T04:28:00.429Z,1.98
2024-01-04T04:30:30.944Z,1.20
2024-01-04T04:33:01.335Z,1.27
2024-01-04T04:35:31.195Z,1.25
2024-01-04T04:38:01.882Z,1.13
2024-01-04T04:40:34.396Z,1.55
2024-01-04T04:43:04.490Z,1.25
2024-01-04T04:45:34.731Z,1.35
2024-01-04T04:48:05.006Z,1.55
2024-01-04T04:50:35.125Z,0.82
2024-01-04T04:53:05.570Z,1.02
2024-01-04T04:55:38.246Z,1.60
2024-01-04T04:58:08.341Z,1.95
2024-01-04T05:00:38.540Z,1.60
2024-01-04T05:03:08.908Z,2.10
2024-01-04T05:05:39.241Z,1.77
2024-01-04T05:08:09.915Z,1.20
2024-01-04T05:10:42.990Z,1.60
2024-01-04T05:13:13.118Z,1.95
2024-01-04T05:15:44.285Z,1.20
2024-01-04T05:18:14.372Z,1.40
2024-01-04T05:20:44.404Z,2.10
2024-01-04T05:23:14.837Z,1.55
2024-01-04T05:25:47.666Z,1.10
2024-01-04T05:28:17.496Z,1.25
2024-01-04T05:30:47.527Z,1.35
2024-01-04T05:33:17.573Z,1.20
2024-01-04T05:35:47.856Z,1.00
2024-01-04T05:38:18.004Z,0.93
2024-01-04T05:40:50.712Z,1.20
2024-01-04T05:43:21.126Z,0.80
2024-01-04T05:45:51.233Z,1.50
2024-01-04T05:48:21.226Z,1.70
2024-01-04T05:50:51.497Z,1.13
2024-01-04T05:53:21.363Z,1.23
2024-01-04T05:55:54.064Z,2.00
2024-01-04T05:58:24.649Z,1.95
2024-01-04T06:00:54.544Z,2.50
2024-01-04T06:03:24.522Z,1.48
2024-01-04T06:05:55.352Z,1.63
2024-01-04T06:08:26.130Z,1.45
2024-01-04T06:10:58.591Z,1.70
2024-01-04T06:16:00.212Z,1.38
2024-01-04T06:18:30.293Z,1.30
2024-01-04T06:21:00.330Z,1.17
2024-01-04T06:23:31.246Z,1.45
2024-01-04T06:26:03.724Z,1.40
2024-01-04T06:31:04.066Z,1.67
2024-01-04T06:33:34.056Z,1.08
2024-01-04T06:36:04.314Z,1.50
2024-01-04T06:38:36.648Z,1.13
2024-01-04T06:41:09.362Z,2.30
2024-01-04T06:43:39.197Z,1.63
2024-01-04T06:46:11.318Z,1.05
2024-01-04T06:48:43.301Z,1.50
2024-01-04T06:51:13.774Z,1.48
2024-01-04T06:53:46.750Z,1.13
2024-01-04T06:56:20.967Z,1.30
2024-01-04T06:58:50.947Z,1.67
2024-01-04T07:01:22.777Z,1.63
2024-01-04T07:03:54.239Z,0.95
2024-01-04T07:06:24.125Z,0.95
2024-01-04T07:08:57.141Z,1.08
2024-01-04T07:11:33.301Z,1.52
2024-01-04T07:14:03.267Z,2.08
2024-01-04T07:16:33.392Z,1.95
2024-01-04T07:19:03.844Z,1.55
2024-01-04T07:21:34.354Z,1.00
2024-01-04T07:24:04.268Z,1.70
2024-01-04T07:26:37.111Z,1.50
2024-01-04T07:29:07.134Z,1.45
2024-01-04T07:31:39.300Z,1.55
2024-01-04T07:34:09.357Z,1.55
2024-01-04T07:36:39.587Z,1.20
2024-01-04T07:39:09.782Z,1.25
2024-01-04T07:41:44.357Z,1.30
2024-01-04T07:44:17.886Z,1.05
2024-01-04T07:46:48.905Z,1.73
2024-01-04T07:49:18.927Z,1.17
2024-01-04T07:51:48.914Z,1.60
2024-01-04T07:54:19.001Z,1.55
2024-01-04T07:56:51.686Z,1.20
2024-01-04T07:59:22.973Z,1.30
2024-01-04T08:01:52.896Z,1.30
2024-01-04T08:04:23.399Z,1.42
2024-01-04T08:06:53.682Z,1.02
2024-01-04T08:09:24.704Z,1.90
2024-01-04T08:11:57.285Z,2.28
2024-01-04T08:16:56.860Z,1.08
2024-01-04T08:19:27.059Z,1.80
2024-01-04T08:21:57.045Z,1.10
2024-01-04T08:24:28.806Z,1.10
2024-01-04T08:27:03.353Z,1.65
2024-01-04T08:29:34.233Z,1.30
2024-01-04T08:32:04.184Z,0.90
2024-01-04T08:34:34.132Z,1.13
2024-01-04T08:37:04.009Z,0.75
2024-01-04T08:39:33.840Z,1.10
2024-01-04T08:42:07.726Z,1.20
2024-01-04T08:44:37.768Z,0.82
2024-01-04T08:47:07.984Z,1.13
2024-01-04T08:49:38.104Z,1.25
2024-01-04T08:52:08.386Z,1.23
2024-01-04T08:54:38.258Z,1.60
2024-01-04T08:57:10.917Z,1.08
2024-01-04T08:59:40.841Z,1.02
2024-01-04T09:02:11.636Z,1.63
2024-01-04T09:04:45.566Z,1.35
2024-01-04T09:07:15.763Z,1.27
2024-01-04T09:09:45.830Z,1.67
2024-01-04T09:12:18.593Z,1.80
2024-01-04T09:14:48.709Z,1.98
2024-01-04T09:17:18.871Z,1.25
2024-01-04T09:19:50.309Z,1.73
2024-01-04T09:22:20.344Z,1.40
2024-01-04T09:24:50.698Z,1.98
2024-01-04T09:27:23.652Z,1.23
2024-01-04T09:29:53.823Z,2.75
2024-01-04T09:32:23.786Z,2.10
2024-01-04T09:34:54.153Z,2.13
2024-01-04T09:37:27.048Z,1.65
2024-01-04T09:39:58.705Z,1.95
2024-01-04T09:42:35.229Z,1.77
2024-01-04T09:45:07.670Z,1.65
2024-01-04T09:50:11.955Z,1.70
2024-01-04T09:52:46.110Z,1.20
2024-01-04T09:55:17.972Z,1.60
2024-01-04T09:57:51.242Z,1.90
2024-01-04T10:00:22.638Z,1.50
2024-01-04T10:02:53.752Z,1.65
2024-01-04T10:05:24.582Z,1.80
2024-01-04T10:08:06.780Z,1.70
2024-01-04T10:10:39.701Z,1.52
2024-01-04T10:13:13.454Z,1.88
2024-01-04T10:15:49.550Z,1.60
2024-01-04T10:18:21.351Z,1.52
2024-01-04T10:21:04.978Z,2.65
2024-01-04T10:23:35.294Z,1.70
2024-01-04T10:26:12.599Z,1.20
2024-01-04T10:28:46.350Z,1.17
2024-01-04T10:31:17.392Z,1.70
2024-01-04T10:33:48.119Z,2.00
2024-01-04T10:36:18.771Z,1.70
2024-01-04T10:38:49.103Z,1.75
2024-01-04T10:41:21.587Z,1.80
2024-01-04T10:43:54.421Z,1.60
2024-01-04T10:48:55.263Z,1.92
2024-01-04T10:51:25.564Z,2.03
2024-01-04T10:54:03.238Z,2.63
2024-01-04T10:56:34.169Z,2.60
2024-01-04T10:59:07.355Z,2.03
2024-01-04T11:01:38.190Z,2.20
2024-01-04T11:04:11.040Z,2.03
2024-01-04T11:06:43.853Z,1.75
2024-01-04T11:09:14.165Z,1.90
2024-01-04T11:11:45.238Z,2.45
2024-01-04T11:14:17.823Z,1.75
2024-01-04T11:19:47.952Z,2.78
2024-01-04T11:22:38.170Z,2.03
2024-01-04T11:25:16.968Z,1.77
2024-01-04T11:27:48.477Z,3.13
2024-01-04T11:30:21.459Z,2.38
2024-01-04T11:32:52.965Z,2.03
2024-01-04T11:35:24.458Z,2.53
2024-01-04T11:37:55.643Z,2.78
2024-01-04T11:40:31.310Z,3.92
2024-01-04T11:43:01.610Z,2.22
2024-01-04T11:45:34.476Z,2.05
2024-01-04T12:11:21.398Z,2.58
2024-01-04T12:13:51.422Z,1.80
2024-01-04T12:16:21.557Z,1.80
2024-01-04T12:18:51.602Z,1.80
2024-01-04T12:21:22.174Z,2.15
2024-01-04T12:23:53.056Z,2.33
2024-01-04T12:26:29.587Z,2.20
2024-01-04T12:29:02.403Z,4.05
2024-01-04T12:31:33.124Z,2.00
2024-01-04T12:34:03.728Z,1.70
2024-01-04T12:36:33.919Z,2.15
2024-01-04T12:39:12.198Z,2.38
2024-01-04T12:41:47.497Z,3.05
2024-01-04T12:44:21.213Z,2.53
2024-01-04T12:46:51.307Z,2.33
2024-01-04T12:49:25.099Z,2.50
2024-01-04T12:51:56.392Z,2.15
2024-01-04T12:54:26.523Z,2.67
2024-01-04T12:56:59.845Z,2.38
2024-01-04T12:59:29.980Z,2.20
2024-01-04T13:02:00.145Z,2.35
2024-01-04T13:04:31.692Z,2.10
2024-01-04T13:07:01.719Z,2.17
2024-01-04T13:09:33.233Z,2.10
2024-01-04T13:12:06.330Z,2.53
2024-01-04T13:14:36.564Z,2.03
2024-01-04T13:17:08.065Z,2.25
2024-01-04T13:19:39.279Z,3.03
2024-01-04T13:22:09.397Z,2.47
2024-01-04T13:24:39.485Z,2.30
2024-01-04T13:27:12.161Z,3.88
2024-01-04T13:29:44.779Z,4.75
2024-01-04T13:32:18.911Z,3.15
2024-01-04T13:34:49.444Z,2.58
2024-01-04T13:37:20.055Z,2.10
2024-01-04T13:39:50.405Z,2.63
2024-01-04T13:42:23.787Z,2.00
2024-01-04T13:44:54.292Z,3.00
2024-01-04T13:47:24.765Z,3.20
2024-01-04T13:49:54.880Z,2.90
2024-01-04T13:52:26.691Z,3.38
2024-01-04T13:54:57.395Z,3.20
2024-01-04T13:57:30.381Z,2.35
2024-01-04T14:00:01.887Z,2.45
2024-01-04T14:02:42.183Z,3.13
2024-01-04T14:05:14.110Z,3.00
2024-01-04T14:07:44.204Z,3.15
2024-01-04T14:10:14.495Z,5.20
2024-01-04T14:12:47.017Z,3.50
2024-01-04T14:15:17.126Z,3.40
2024-01-04T14:17:47.758Z,2.67
2024-01-04T14:20:19.449Z,2.88
2024-01-04T14:22:49.446Z,2.20
2024-01-04T14:25:21.978Z,2.35
2024-01-04T14:27:55.905Z,2.70
2024-01-04T14:30:26.391Z,2.40
2024-01-04T14:32:56.646Z,2.42
2024-01-04T14:35:26.871Z,2.40
2024-01-04T14:37:58.474Z,3.25
2024-01-04T14:40:29.061Z,5.10
2024-01-04T14:43:02.044Z,7.18
2024-01-04T14:45:32.138Z,6.18
2024-01-04T14:48:04.328Z,3.83
2024-01-04T14:50:34.875Z,2.90
2024-01-04T14:53:06.386Z,3.47
2024-01-04T14:55:36.828Z,3.38
2024-01-04T14:58:09.841Z,3.40
2024-01-04T15:00:40.144Z,3.92
2024-01-04T15:03:10.267Z,3.53
2024-01-04T15:05:41.510Z,3.25
2024-01-04T15:08:11.543Z,2.83
2024-01-04T15:10:41.654Z,3.50
2024-01-04T15:13:15.012Z,3.13
2024-01-04T15:15:45.375Z,2.22
2024-01-04T15:18:17.492Z,3.15
2024-01-04T15:23:18.133Z,3.22
2024-01-04T15:25:49.160Z,2.20
2024-01-04T15:28:22.637Z,3.28
2024-01-04T15:30:53.555Z,2.50
2024-01-04T15:33:23.811Z,2.45
2024-01-04T15:35:54.057Z,2.90
2024-01-04T15:38:24.510Z,2.63
2024-01-04T15:40:55.869Z,1.75
2024-01-04T15:43:30.324Z,1.92
2024-01-04T15:46:00.242Z,2.10
2024-01-04T15:48:30.771Z,2.50
2024-01-04T15:51:02.572Z,4.22
2024-01-04T15:53:33.233Z,5.63
2024-01-04T15:56:03.497Z,7.78
2024-01-04T15:58:36.571Z,23.05
2024-01-04T16:01:06.890Z,42.03
2024-01-04T16:03:37.068Z,79.00
2024-01-04T16:06:08.261Z,32.72
2024-01-04T16:08:38.664Z,7.88
2024-01-04T16:11:08.774Z,20.00
2024-01-04T16:13:41.904Z,5.53
2024-01-04T16:16:11.906Z,26.17
2024-01-04T16:18:42.108Z,19.40
2024-01-04T16:21:14.066Z,12.90
2024-01-04T16:23:44.597Z,4.50
2024-01-04T16:26:18.034Z,4.32
2024-01-04T16:28:50.887Z,12.45
2024-01-04T16:31:23.166Z,5.72
2024-01-04T16:33:54.307Z,5.85
2024-01-04T16:36:28.507Z,7.03
2024-01-04T16:38:59.233Z,4.72
2024-01-04T16:41:29.362Z,11.50
2024-01-04T16:44:02.030Z,6.25
2024-01-04T16:46:32.266Z,7.18
2024-01-04T16:49:02.295Z,3.88
2024-01-04T16:51:32.758Z,3.40
2024-01-04T16:54:03.006Z,3.35
2024-01-04T16:56:33.150Z,3.78
2024-01-04T16:59:05.770Z,2.97
2024-01-04T17:01:36.169Z,3.15
2024-01-04T17:04:07.385Z,4.32
2024-01-04T17:06:37.678Z,3.65
2024-01-04T17:09:08.812Z,3.88
2024-01-04T17:11:39.209Z,3.60
2024-01-04T17:14:12.489Z,3.60
2024-01-04T17:16:43.321Z,3.75
2024-01-04T17:19:13.955Z,4.00
2024-01-04T17:21:43.965Z,2.95
2024-01-04T17:24:14.567Z,3.45
2024-01-04T17:26:44.917Z,4.45
2024-01-04T17:29:17.746Z,3.13
2024-01-04T17:31:47.758Z,2.70
2024-01-04T17:34:18.007Z,3.22
2024-01-04T17:36:48.609Z,2.72
2024-01-04T17:39:18.797Z,3.38
2024-01-04T17:41:50.011Z,2.60
2024-01-04T17:44:22.594Z,3.00
2024-01-04T17:49:22.504Z,2.40
2024-01-04T17:51:52.818Z,2.70
2024-01-04T17:54:22.990Z,4.82
2024-01-04T17:56:53.194Z,4.43
2024-01-04T17:59:25.822Z,8.25
2024-01-04T18:01:56.102Z,6.13
2024-01-04T18:04:26.336Z,4.53
2024-01-04T18:06:56.665Z,2.78
2024-01-04T18:09:26.636Z,2.90
2024-01-04T18:11:57.310Z,2.47
2024-01-04T18:14:30.175Z,2.53
2024-01-04T18:17:00.324Z,2.50
2024-01-04T18:19:31.021Z,2.72
2024-01-04T18:22:01.250Z,3.53
2024-01-04T18:24:31.439Z,3.15
2024-01-04T18:27:01.585Z,3.08
2024-01-04T18:29:34.333Z,2.78
2024-01-04T18:32:05.021Z,4.00
2024-01-04T18:34:35.185Z,2.85
2024-01-04T18:37:07.972Z,3.15
2024-01-04T18:39:38.453Z,3.13
2024-01-04T18:42:09.092Z,3.88
2024-01-04T18:44:42.632Z,3.50
2024-01-04T18:47:12.572Z,3.40
2024-01-04T18:49:42.783Z,4.15
2024-01-04T18:52:13.024Z,3.53
2024-01-04T18:54:45.484Z,2.60
2024-01-04T18:59:49.255Z,3.13
2024-01-04T19:02:19.412Z,2.90
2024-01-04T19:04:50.626Z,2.60
2024-01-04T19:07:23.546Z,2.90
2024-01-04T19:09:53.698Z,2.45
2024-01-04T19:12:24.176Z,2.95
2024-01-04T19:15:13.083Z,3.60
2024-01-04T19:17:52.906Z,2.72
2024-01-04T19:20:23.061Z,3.30
2024-01-04T19:22:54.280Z,4.18
2024-01-04T19:25:24.343Z,2.85
2024-01-04T19:27:58.295Z,3.78
2024-01-04T19:30:33.579Z,3.33
2024-01-04T19:33:05.432Z,3.38
2024-01-04T19:35:35.730Z,3.47
2024-01-04T19:38:06.790Z,4.18
2024-01-04T19:40:37.134Z,3.40
2024-01-04T19:43:07.580Z,2.78
2024-01-04T19:45:40.328Z,3.70
2024-01-04T19:48:11.464Z,3.10
2024-01-04T19:50:41.411Z,3.35
2024-01-04T19:53:12.151Z,2.92
2024-01-04T19:55:43.429Z,3.25
2024-01-04T19:58:13.396Z,3.45
2024-01-04T20:00:46.267Z,3.25
2024-01-04T20:03:16.831Z,3.83
2024-01-04T20:05:47.287Z,4.35
2024-01-04T20:08:17.266Z,4.45
2024-01-04T20:10:47.374Z,3.22
2024-01-04T20:13:18.068Z,3.80
2024-01-04T20:15:51.152Z,4.22
2024-01-04T20:18:25.942Z,4.07
2024-01-04T20:20:56.521Z,3.35
2024-01-04T20:23:29.532Z,3.88
2024-01-04T20:25:59.490Z,3.78
2024-01-04T20:28:33.555Z,4.00
2024-01-04T20:31:09.662Z,3.28
2024-01-04T20:33:40.396Z,3.70
2024-01-04T20:36:11.891Z,4.47
2024-01-04T20:38:45.844Z,3.80
2024-01-04T20:41:16.476Z,4.68
2024-01-04T20:43:46.660Z,4.32
2024-01-04T20:46:19.705Z,5.63
2024-01-04T20:51:22.030Z,5.30
2024-01-04T20:53:52.139Z,5.10
2024-01-04T20:56:24.975Z,4.63
2024-01-04T20:58:55.486Z,5.25
2024-01-04T21:01:28.262Z,5.28
2024-01-04T21:04:00.403Z,5.07
2024-01-04T21:06:30.447Z,5.13
2024-01-04T21:09:00.699Z,5.97
2024-01-04T21:11:31.469Z,4.60
2024-01-04T21:14:02.368Z,5.93
2024-01-04T21:16:35.953Z,5.70
2024-01-04T21:19:07.776Z,4.20
2024-01-04T21:21:37.962Z,4.68
2024-01-04T21:24:09.304Z,4.50
2024-01-04T21:26:40.517Z,4.60
2024-01-04T21:29:10.872Z,4.72
2024-01-04T21:31:43.679Z,4.65
2024-01-04T21:34:14.765Z,5.15
2024-01-04T21:36:45.655Z,5.05
2024-01-04T21:39:22.119Z,5.18
2024-01-04T21:41:52.640Z,5.03
2024-01-04T21:44:22.775Z,6.28
2024-01-04T21:46:55.376Z,5.82
2024-01-04T21:51:55.351Z,6.15
2024-01-04T21:54:25.468Z,5.22
2024-01-04T21:56:55.604Z,5.35
2024-01-04T21:59:25.957Z,6.13
2024-01-04T22:01:59.045Z,6.75
2024-01-04T22:04:29.421Z,5.78
2024-01-04T22:06:59.749Z,6.32
2024-01-04T22:09:31.838Z,5.88
2024-01-04T22:12:02.422Z,6.25
2024-01-04T22:14:32.435Z,5.88
2024-01-04T22:17:07.196Z,5.70
2024-01-04T22:19:38.184Z,5.43
2024-01-04T22:22:09.126Z,6.22
2024-01-04T22:24:39.743Z,6.00
2024-01-04T22:27:09.734Z,5.90
2024-01-04T22:29:40.566Z,5.13
2024-01-04T22:32:13.769Z,6.20
2024-01-04T22:34:44.107Z,6.25
2024-01-04T22:37:16.365Z,5.85
2024-01-04T22:39:47.842Z,7.47
2024-01-04T22:42:18.204Z,6.57
2024-01-04T22:44:48.347Z,6.32
2024-01-04T22:47:21.149Z,7.22
2024-01-04T22:49:52.013Z,6.97
2024-01-04T22:52:24.250Z,7.78
2024-01-04T22:54:54.360Z,6.60
2024-01-04T22:57:24.597Z,7.45
2024-01-04T22:59:56.007Z,7.68
2024-01-04T23:02:29.925Z,6.53
2024-01-04T23:04:59.933Z,8.20
2024-01-04T23:07:30.488Z,7.97
2024-01-04T23:10:00.693Z,8.13
2024-01-04T23:12:30.873Z,7.60
2024-01-04T23:15:01.322Z,7.93
2024-01-04T23:17:34.237Z,7.95
2024-01-04T23:20:04.505Z,7.78
2024-01-04T23:22:34.645Z,7.57
2024-01-04T23:25:04.784Z,7.78
2024-01-04T23:27:35.853Z,8.20
2024-01-04T23:30:06.971Z,8.35
2024-01-04T23:32:40.320Z,7.30
2024-01-04T23:35:11.721Z,7.93
2024-01-04T23:37:41.730Z,7.80
2024-01-04T23:40:13.404Z,6.85
2024-01-04T23:42:43.533Z,7.25
2024-01-04T23:47:46.707Z,6.68
2024-01-04T23:50:17.066Z,8.77
2024-01-04T23:52:47.130Z,7.40
2024-01-04T23:55:17.945Z,5.55
2024-01-04T23:57:47.922Z,6.40
